Kenockee Township, Michigan
Current Conditions -  °F | °C
As of 1:37 PM on Sunday 21 Dec 2014 (Local Time) from KPHN Reporting Station
Clear Clear  
Wind Chill: 30°   Ceiling: Unl
Heat Index: 36°   Visibility: 10mi
Dew Point: 25°   Wind: 7mph
Humidity: 65%   Direction: 180°S
Pressure: 30.25"   Gusts: NA
Location:  43.076°N, 82.6968°W
Report Text: KPHN 211837Z AUTO 18006KT 10SM CLR 02/M04 A3025 RMK AO2
Loading
Personal Weather Stations






























Interactive Weather Map New forecast layout! Learn more

10-Day Weather Forecast

Advertisements
Track Severe Weather on mobile